sensor_id;sensor_type;location;lat;lon;timestamp;temperature;humidity
19781;DHT22;10050;55.492;13.506;2023-04-27T00:00:32;5.30;99.90
19781;DHT22;10050;55.492;13.506;2023-04-27T00:02:58;5.30;99.90
19781;DHT22;10050;55.492;13.506;2023-04-27T00:05:23;5.30;99.90
19781;DHT22;10050;55.492;13.506;2023-04-27T00:07:49;5.20;99.90
19781;DHT22;10050;55.492;13.506;2023-04-27T00:10:15;5.20;99.90
19781;DHT22;10050;55.492;13.506;2023-04-27T00:12:40;5.20;99.90
19781;DHT22;10050;55.492;13.506;2023-04-27T00:15:07;5.20;99.90
19781;DHT22;10050;55.492;13.506;2023-04-27T00:17:34;5.20;99.90
19781;DHT22;10050;55.492;13.506;2023-04-27T00:20:00;5.20;99.90
19781;DHT22;10050;55.492;13.506;2023-04-27T00:22:26;5.10;99.90
19781;DHT22;10050;55.492;13.506;2023-04-27T00:24:51;5.10;99.90
19781;DHT22;10050;55.492;13.506;2023-04-27T00:27:17;5.10;99.90
19781;DHT22;10050;55.492;13.506;2023-04-27T00:29:42;5.10;99.90
19781;DHT22;10050;55.492;13.506;2023-04-27T00:32:11;5.10;99.90
19781;DHT22;10050;55.492;13.506;2023-04-27T00:34:37;5.10;99.90
19781;DHT22;10050;55.492;13.506;2023-04-27T00:37:03;5.10;99.90
19781;DHT22;10050;55.492;13.506;2023-04-27T00:39:30;5.10;99.90
19781;DHT22;10050;55.492;13.506;2023-04-27T00:41:59;5.10;99.90
19781;DHT22;10050;55.492;13.506;2023-04-27T00:44:25;5.10;99.90
19781;DHT22;10050;55.492;13.506;2023-04-27T00:46:52;5.00;99.90
19781;DHT22;10050;55.492;13.506;2023-04-27T00:49:21;5.00;99.90
19781;DHT22;10050;55.492;13.506;2023-04-27T00:51:48;4.90;99.90
19781;DHT22;10050;55.492;13.506;2023-04-27T00:54:19;4.90;99.90
19781;DHT22;10050;55.492;13.506;2023-04-27T00:56:52;4.90;99.90
19781;DHT22;10050;55.492;13.506;2023-04-27T00:59:18;4.90;99.90
19781;DHT22;10050;55.492;13.506;2023-04-27T01:01:48;4.90;99.90
19781;DHT22;10050;55.492;13.506;2023-04-27T01:04:14;4.80;99.90
19781;DHT22;10050;55.492;13.506;2023-04-27T01:06:42;4.80;99.90
19781;DHT22;10050;55.492;13.506;2023-04-27T01:09:08;4.80;99.90
19781;DHT22;10050;55.492;13.506;2023-04-27T01:11:34;4.80;99.90
19781;DHT22;10050;55.492;13.506;2023-04-27T01:14:04;4.80;99.90
19781;DHT22;10050;55.492;13.506;2023-04-27T01:16:34;4.80;99.90
19781;DHT22;10050;55.492;13.506;2023-04-27T01:18:59;4.80;99.90
19781;DHT22;10050;55.492;13.506;2023-04-27T01:21:26;4.70;99.90
19781;DHT22;10050;55.492;13.506;2023-04-27T01:23:52;4.80;99.90
19781;DHT22;10050;55.492;13.506;2023-04-27T01:26:18;4.70;99.90
19781;DHT22;10050;55.492;13.506;2023-04-27T01:28:43;4.80;99.90
19781;DHT22;10050;55.492;13.506;2023-04-27T01:31:10;4.80;99.90
19781;DHT22;10050;55.492;13.506;2023-04-27T01:33:36;4.90;99.90
19781;DHT22;10050;55.492;13.506;2023-04-27T01:36:02;4.90;99.90
19781;DHT22;10050;55.492;13.506;2023-04-27T01:38:28;4.90;99.90
19781;DHT22;10050;55.492;13.506;2023-04-27T01:40:54;4.80;99.90
19781;DHT22;10050;55.492;13.506;2023-04-27T01:43:29;4.80;99.90
19781;DHT22;10050;55.492;13.506;2023-04-27T01:45:55;4.70;99.90
19781;DHT22;10050;55.492;13.506;2023-04-27T01:48:21;4.70;99.90
19781;DHT22;10050;55.492;13.506;2023-04-27T01:50:47;4.80;99.90
19781;DHT22;10050;55.492;13.506;2023-04-27T01:53:13;4.80;99.90
19781;DHT22;10050;55.492;13.506;2023-04-27T01:55:38;4.80;99.90
19781;DHT22;10050;55.492;13.506;2023-04-27T01:58:04;4.80;99.90
19781;DHT22;10050;55.492;13.506;2023-04-27T02:00:30;4.80;99.90
19781;DHT22;10050;55.492;13.506;2023-04-27T02:02:55;4.80;99.90
19781;DHT22;10050;55.492;13.506;2023-04-27T02:05:25;4.70;99.90
19781;DHT22;10050;55.492;13.506;2023-04-27T02:07:51;4.70;99.90
19781;DHT22;10050;55.492;13.506;2023-04-27T02:10:16;4.70;99.90
19781;DHT22;10050;55.492;13.506;2023-04-27T02:12:42;4.70;99.90
19781;DHT22;10050;55.492;13.506;2023-04-27T02:15:08;4.70;99.90
19781;DHT22;10050;55.492;13.506;2023-04-27T02:17:34;4.60;99.90
19781;DHT22;10050;55.492;13.506;2023-04-27T02:20:00;4.60;99.90
19781;DHT22;10050;55.492;13.506;2023-04-27T02:22:25;4.60;99.90
19781;DHT22;10050;55.492;13.506;2023-04-27T02:24:51;4.50;99.90
19781;DHT22;10050;55.492;13.506;2023-04-27T02:27:17;4.50;99.90
19781;DHT22;10050;55.492;13.506;2023-04-27T02:29:43;4.50;99.90
19781;DHT22;10050;55.492;13.506;2023-04-27T02:32:08;4.50;99.90
19781;DHT22;10050;55.492;13.506;2023-04-27T02:34:34;4.50;99.90
19781;DHT22;10050;55.492;13.506;2023-04-27T02:36:59;4.50;99.90
19781;DHT22;10050;55.492;13.506;2023-04-27T02:39:25;4.40;99.90
19781;DHT22;10050;55.492;13.506;2023-04-27T02:41:51;4.50;99.90
19781;DHT22;10050;55.492;13.506;2023-04-27T02:44:16;4.40;99.90
19781;DHT22;10050;55.492;13.506;2023-04-27T02:46:42;4.30;99.90
19781;DHT22;10050;55.492;13.506;2023-04-27T02:49:08;4.30;99.90
19781;DHT22;10050;55.492;13.506;2023-04-27T02:51:33;4.30;99.90
19781;DHT22;10050;55.492;13.506;2023-04-27T02:53:59;4.30;99.90
19781;DHT22;10050;55.492;13.506;2023-04-27T02:56:25;4.30;99.90
19781;DHT22;10050;55.492;13.506;2023-04-27T02:58:50;4.30;99.90
19781;DHT22;10050;55.492;13.506;2023-04-27T03:01:17;4.30;99.90
19781;DHT22;10050;55.492;13.506;2023-04-27T03:03:46;4.30;99.90
19781;DHT22;10050;55.492;13.506;2023-04-27T03:06:12;4.30;99.90
19781;DHT22;10050;55.492;13.506;2023-04-27T03:08:37;4.30;99.90
19781;DHT22;10050;55.492;13.506;2023-04-27T03:11:03;4.30;99.90
19781;DHT22;10050;55.492;13.506;2023-04-27T03:13:29;4.30;99.90
19781;DHT22;10050;55.492;13.506;2023-04-27T03:15:54;4.30;99.90
19781;DHT22;10050;55.492;13.506;2023-04-27T03:18:20;4.30;99.90
19781;DHT22;10050;55.492;13.506;2023-04-27T03:20:46;4.30;99.90
19781;DHT22;10050;55.492;13.506;2023-04-27T03:23:11;4.20;99.90
19781;DHT22;10050;55.492;13.506;2023-04-27T03:25:37;4.20;99.90
19781;DHT22;10050;55.492;13.506;2023-04-27T03:28:03;4.30;99.90
19781;DHT22;10050;55.492;13.506;2023-04-27T03:30:29;4.20;99.90
19781;DHT22;10050;55.492;13.506;2023-04-27T03:32:54;4.20;99.90
19781;DHT22;10050;55.492;13.506;2023-04-27T03:35:20;4.10;99.90
19781;DHT22;10050;55.492;13.506;2023-04-27T03:37:46;4.20;99.90
19781;DHT22;10050;55.492;13.506;2023-04-27T03:40:12;4.20;99.90
19781;DHT22;10050;55.492;13.506;2023-04-27T03:42:38;4.20;99.90
19781;DHT22;10050;55.492;13.506;2023-04-27T03:45:04;4.20;99.90
19781;DHT22;10050;55.492;13.506;2023-04-27T03:47:31;4.10;99.90
19781;DHT22;10050;55.492;13.506;2023-04-27T03:49:57;4.20;99.90
19781;DHT22;10050;55.492;13.506;2023-04-27T03:52:23;4.20;99.90
19781;DHT22;10050;55.492;13.506;2023-04-27T03:54:48;4.20;99.90
19781;DHT22;10050;55.492;13.506;2023-04-27T03:57:14;4.20;99.90
19781;DHT22;10050;55.492;13.506;2023-04-27T03:59:42;4.20;99.90
19781;DHT22;10050;55.492;13.506;2023-04-27T04:02:08;4.20;99.90
19781;DHT22;10050;55.492;13.506;2023-04-27T04:04:33;4.20;99.90
19781;DHT22;10050;55.492;13.506;2023-04-27T04:06:59;4.30;99.90
19781;DHT22;10050;55.492;13.506;2023-04-27T04:09:25;4.30;99.90
19781;DHT22;10050;55.492;13.506;2023-04-27T04:11:51;4.30;99.90
19781;DHT22;10050;55.492;13.506;2023-04-27T04:14:17;4.40;99.90
19781;DHT22;10050;55.492;13.506;2023-04-27T04:16:42;4.40;99.90
19781;DHT22;10050;55.492;13.506;2023-04-27T04:19:08;4.40;99.90
19781;DHT22;10050;55.492;13.506;2023-04-27T04:21:34;4.40;99.90
19781;DHT22;10050;55.492;13.506;2023-04-27T04:23:59;4.40;99.90
19781;DHT22;10050;55.492;13.506;2023-04-27T04:26:25;4.40;99.90
19781;DHT22;10050;55.492;13.506;2023-04-27T04:28:51;4.50;99.90
19781;DHT22;10050;55.492;13.506;2023-04-27T04:31:17;4.50;99.90
19781;DHT22;10050;55.492;13.506;2023-04-27T04:33:43;4.60;99.90
19781;DHT22;10050;55.492;13.506;2023-04-27T04:36:08;4.60;99.90
19781;DHT22;10050;55.492;13.506;2023-04-27T04:38:35;4.60;99.90
19781;DHT22;10050;55.492;13.506;2023-04-27T04:41:01;4.70;99.90
19781;DHT22;10050;55.492;13.506;2023-04-27T04:43:26;4.70;99.90
19781;DHT22;10050;55.492;13.506;2023-04-27T04:45:52;4.70;99.90
19781;DHT22;10050;55.492;13.506;2023-04-27T04:48:18;4.80;99.90
19781;DHT22;10050;55.492;13.506;2023-04-27T04:50:44;4.80;99.90
19781;DHT22;10050;55.492;13.506;2023-04-27T04:53:10;4.90;99.90
19781;DHT22;10050;55.492;13.506;2023-04-27T04:55:36;4.90;99.90
19781;DHT22;10050;55.492;13.506;2023-04-27T04:58:01;5.00;99.90
19781;DHT22;10050;55.492;13.506;2023-04-27T05:00:27;5.00;99.90
19781;DHT22;10050;55.492;13.506;2023-04-27T05:02:53;5.00;99.90
19781;DHT22;10050;55.492;13.506;2023-04-27T05:05:19;5.10;99.90
19781;DHT22;10050;55.492;13.506;2023-04-27T05:07:44;5.10;99.90
19781;DHT22;10050;55.492;13.506;2023-04-27T05:10:10;5.20;99.90
19781;DHT22;10050;55.492;13.506;2023-04-27T05:12:36;5.20;99.90
19781;DHT22;10050;55.492;13.506;2023-04-27T05:15:01;5.30;99.90
19781;DHT22;10050;55.492;13.506;2023-04-27T05:17:27;5.50;99.90
19781;DHT22;10050;55.492;13.506;2023-04-27T05:19:53;5.70;99.90
19781;DHT22;10050;55.492;13.506;2023-04-27T05:22:19;5.80;99.90
19781;DHT22;10050;55.492;13.506;2023-04-27T05:24:44;5.80;99.90
19781;DHT22;10050;55.492;13.506;2023-04-27T05:27:12;5.80;99.90
19781;DHT22;10050;55.492;13.506;2023-04-27T05:29:38;5.90;99.90
19781;DHT22;10050;55.492;13.506;2023-04-27T05:32:04;6.00;99.90
19781;DHT22;10050;55.492;13.506;2023-04-27T05:34:30;6.00;99.90
19781;DHT22;10050;55.492;13.506;2023-04-27T05:36:56;6.10;99.90
19781;DHT22;10050;55.492;13.506;2023-04-27T05:39:21;6.20;99.90
19781;DHT22;10050;55.492;13.506;2023-04-27T05:41:47;6.40;99.90
19781;DHT22;10050;55.492;13.506;2023-04-27T05:44:15;6.40;99.90
19781;DHT22;10050;55.492;13.506;2023-04-27T05:46:41;6.50;99.90
19781;DHT22;10050;55.492;13.506;2023-04-27T05:49:10;6.40;99.90
19781;DHT22;10050;55.492;13.506;2023-04-27T05:51:35;6.30;99.90
19781;DHT22;10050;55.492;13.506;2023-04-27T05:54:03;6.30;99.90
19781;DHT22;10050;55.492;13.506;2023-04-27T05:56:28;6.40;99.90
19781;DHT22;10050;55.492;13.506;2023-04-27T05:58:54;6.70;99.90
19781;DHT22;10050;55.492;13.506;2023-04-27T06:01:20;6.90;99.90
19781;DHT22;10050;55.492;13.506;2023-04-27T06:03:46;7.00;99.90
19781;DHT22;10050;55.492;13.506;2023-04-27T06:06:11;7.00;99.90
19781;DHT22;10050;55.492;13.506;2023-04-27T06:08:37;7.00;99.90
19781;DHT22;10050;55.492;13.506;2023-04-27T06:11:04;6.90;99.90
19781;DHT22;10050;55.492;13.506;2023-04-27T06:13:30;7.10;99.90
19781;DHT22;10050;55.492;13.506;2023-04-27T06:15:57;7.10;99.90
19781;DHT22;10050;55.492;13.506;2023-04-27T06:18:22;7.10;99.90
19781;DHT22;10050;55.492;13.506;2023-04-27T06:20:48;7.20;99.90
19781;DHT22;10050;55.492;13.506;2023-04-27T06:23:14;7.70;99.90
19781;DHT22;10050;55.492;13.506;2023-04-27T06:25:39;8.40;99.90
19781;DHT22;10050;55.492;13.506;2023-04-27T06:28:08;8.80;99.90
19781;DHT22;10050;55.492;13.506;2023-04-27T06:30:34;8.80;99.90
19781;DHT22;10050;55.492;13.506;2023-04-27T06:32:59;8.90;99.90
19781;DHT22;10050;55.492;13.506;2023-04-27T06:35:29;8.80;99.90
19781;DHT22;10050;55.492;13.506;2023-04-27T06:37:54;8.40;99.90
19781;DHT22;10050;55.492;13.506;2023-04-27T06:40:24;8.10;99.90
19781;DHT22;10050;55.492;13.506;2023-04-27T06:42:50;7.80;99.90
19781;DHT22;10050;55.492;13.506;2023-04-27T06:45:15;7.80;99.90
19781;DHT22;10050;55.492;13.506;2023-04-27T06:47:41;8.30;99.90
19781;DHT22;10050;55.492;13.506;2023-04-27T06:50:09;8.60;99.90
19781;DHT22;10050;55.492;13.506;2023-04-27T06:52:35;8.60;99.90
19781;DHT22;10050;55.492;13.506;2023-04-27T06:55:01;8.60;99.90
19781;DHT22;10050;55.492;13.506;2023-04-27T06:57:27;9.00;99.90
19781;DHT22;10050;55.492;13.506;2023-04-27T06:59:52;9.60;99.90
19781;DHT22;10050;55.492;13.506;2023-04-27T07:02:18;9.80;99.90
19781;DHT22;10050;55.492;13.506;2023-04-27T07:04:46;9.70;99.90
19781;DHT22;10050;55.492;13.506;2023-04-27T07:07:12;9.60;99.90
19781;DHT22;10050;55.492;13.506;2023-04-27T07:09:37;9.00;99.90
19781;DHT22;10050;55.492;13.506;2023-04-27T07:12:03;8.70;99.90
19781;DHT22;10050;55.492;13.506;2023-04-27T07:14:32;8.80;99.90
19781;DHT22;10050;55.492;13.506;2023-04-27T07:17:00;9.30;99.90
19781;DHT22;10050;55.492;13.506;2023-04-27T07:19:29;9.20;99.90
19781;DHT22;10050;55.492;13.506;2023-04-27T07:21:54;9.40;99.90
19781;DHT22;10050;55.492;13.506;2023-04-27T07:24:20;10.00;99.90
19781;DHT22;10050;55.492;13.506;2023-04-27T07:26:48;10.10;99.90
19781;DHT22;10050;55.492;13.506;2023-04-27T07:29:17;10.50;99.90
19781;DHT22;10050;55.492;13.506;2023-04-27T07:31:42;10.60;99.90
19781;DHT22;10050;55.492;13.506;2023-04-27T07:34:08;10.60;99.90
19781;DHT22;10050;55.492;13.506;2023-04-27T07:36:35;10.70;99.90
19781;DHT22;10050;55.492;13.506;2023-04-27T07:39:02;10.60;99.90
19781;DHT22;10050;55.492;13.506;2023-04-27T07:41:29;10.30;99.90
19781;DHT22;10050;55.492;13.506;2023-04-27T07:43:56;9.90;99.90
19781;DHT22;10050;55.492;13.506;2023-04-27T07:46:22;9.70;99.90
19781;DHT22;10050;55.492;13.506;2023-04-27T07:48:49;10.50;99.90
19781;DHT22;10050;55.492;13.506;2023-04-27T07:51:15;10.60;99.90
19781;DHT22;10050;55.492;13.506;2023-04-27T07:53:42;10.50;99.90
19781;DHT22;10050;55.492;13.506;2023-04-27T07:56:07;10.90;99.90
19781;DHT22;10050;55.492;13.506;2023-04-27T07:58:36;11.60;99.90
19781;DHT22;10050;55.492;13.506;2023-04-27T08:01:02;12.00;99.90
19781;DHT22;10050;55.492;13.506;2023-04-27T08:03:31;11.30;99.90
19781;DHT22;10050;55.492;13.506;2023-04-27T08:06:00;10.70;99.90
19781;DHT22;10050;55.492;13.506;2023-04-27T08:08:26;10.10;99.90
19781;DHT22;10050;55.492;13.506;2023-04-27T08:10:53;9.90;99.90
19781;DHT22;10050;55.492;13.506;2023-04-27T08:13:19;10.70;99.90
19781;DHT22;10050;55.492;13.506;2023-04-27T08:15:44;11.60;99.90
19781;DHT22;10050;55.492;13.506;2023-04-27T08:18:10;12.00;99.90
19781;DHT22;10050;55.492;13.506;2023-04-27T08:20:36;11.60;99.90
19781;DHT22;10050;55.492;13.506;2023-04-27T08:23:01;11.30;99.90
19781;DHT22;10050;55.492;13.506;2023-04-27T08:25:27;10.90;99.90
19781;DHT22;10050;55.492;13.506;2023-04-27T08:27:55;10.60;99.90
19781;DHT22;10050;55.492;13.506;2023-04-27T08:30:21;10.00;99.90
19781;DHT22;10050;55.492;13.506;2023-04-27T08:32:46;9.70;99.90
19781;DHT22;10050;55.492;13.506;2023-04-27T08:35:12;9.40;99.90
19781;DHT22;10050;55.492;13.506;2023-04-27T08:37:39;9.30;99.90
19781;DHT22;10050;55.492;13.506;2023-04-27T08:40:05;9.10;99.90
19781;DHT22;10050;55.492;13.506;2023-04-27T08:42:35;9.80;99.90
19781;DHT22;10050;55.492;13.506;2023-04-27T08:45:01;10.80;99.90
19781;DHT22;10050;55.492;13.506;2023-04-27T08:47:27;11.60;99.90
19781;DHT22;10050;55.492;13.506;2023-04-27T08:49:52;12.50;99.90
19781;DHT22;10050;55.492;13.506;2023-04-27T08:52:18;12.80;99.90
19781;DHT22;10050;55.492;13.506;2023-04-27T08:54:44;12.40;99.90
19781;DHT22;10050;55.492;13.506;2023-04-27T08:57:13;11.80;99.90
19781;DHT22;10050;55.492;13.506;2023-04-27T08:59:39;11.40;99.90
19781;DHT22;10050;55.492;13.506;2023-04-27T09:02:05;11.90;99.90
19781;DHT22;10050;55.492;13.506;2023-04-27T09:04:40;12.20;99.90
19781;DHT22;10050;55.492;13.506;2023-04-27T09:07:16;12.30;99.90
19781;DHT22;10050;55.492;13.506;2023-04-27T09:09:45;12.70;99.90
19781;DHT22;10050;55.492;13.506;2023-04-27T09:12:16;12.30;99.90
19781;DHT22;10050;55.492;13.506;2023-04-27T09:15:01;12.50;99.90
19781;DHT22;10050;55.492;13.506;2023-04-27T09:17:29;12.80;99.90
19781;DHT22;10050;55.492;13.506;2023-04-27T09:20:04;12.40;99.90
19781;DHT22;10050;55.492;13.506;2023-04-27T09:22:42;11.70;99.90
19781;DHT22;10050;55.492;13.506;2023-04-27T09:25:08;11.10;99.90
19781;DHT22;10050;55.492;13.506;2023-04-27T09:27:39;10.70;99.90
19781;DHT22;10050;55.492;13.506;2023-04-27T09:30:14;10.60;99.90
19781;DHT22;10050;55.492;13.506;2023-04-27T09:32:51;10.40;99.90
19781;DHT22;10050;55.492;13.506;2023-04-27T09:35:23;10.80;99.90
19781;DHT22;10050;55.492;13.506;2023-04-27T09:37:50;11.10;99.90
19781;DHT22;10050;55.492;13.506;2023-04-27T09:40:24;10.80;99.90
19781;DHT22;10050;55.492;13.506;2023-04-27T09:42:55;10.50;99.90
19781;DHT22;10050;55.492;13.506;2023-04-27T09:45:24;10.40;99.90
19781;DHT22;10050;55.492;13.506;2023-04-27T09:47:50;10.40;99.90
19781;DHT22;10050;55.492;13.506;2023-04-27T09:50:16;10.60;99.90
19781;DHT22;10050;55.492;13.506;2023-04-27T09:52:44;10.70;99.90
19781;DHT22;10050;55.492;13.506;2023-04-27T09:55:15;10.60;99.90
19781;DHT22;10050;55.492;13.506;2023-04-27T10:00:56;11.60;99.90
19781;DHT22;10050;55.492;13.506;2023-04-27T10:03:32;11.70;99.90
19781;DHT22;10050;55.492;13.506;2023-04-27T10:06:43;12.00;99.90
19781;DHT22;10050;55.492;13.506;2023-04-27T10:09:11;12.20;99.90
19781;DHT22;10050;55.492;13.506;2023-04-27T10:11:41;12.30;99.90
19781;DHT22;10050;55.492;13.506;2023-04-27T10:14:16;12.70;99.90
19781;DHT22;10050;55.492;13.506;2023-04-27T10:16:44;12.40;99.90
19781;DHT22;10050;55.492;13.506;2023-04-27T10:19:13;12.00;99.90
19781;DHT22;10050;55.492;13.506;2023-04-27T10:21:58;11.70;99.90
19781;DHT22;10050;55.492;13.506;2023-04-27T10:24:36;11.60;99.90
19781;DHT22;10050;55.492;13.506;2023-04-27T10:27:07;12.40;99.90
19781;DHT22;10050;55.492;13.506;2023-04-27T10:29:42;12.90;99.90
19781;DHT22;10050;55.492;13.506;2023-04-27T10:32:12;12.60;99.90
19781;DHT22;10050;55.492;13.506;2023-04-27T10:34:39;12.00;99.90
19781;DHT22;10050;55.492;13.506;2023-04-27T10:37:09;11.90;99.90
19781;DHT22;10050;55.492;13.506;2023-04-27T10:39:38;11.60;99.90
19781;DHT22;10050;55.492;13.506;2023-04-27T10:42:05;12.50;99.90
19781;DHT22;10050;55.492;13.506;2023-04-27T10:44:34;13.30;99.90
19781;DHT22;10050;55.492;13.506;2023-04-27T10:47:10;13.20;99.90
19781;DHT22;10050;55.492;13.506;2023-04-27T10:49:37;12.60;99.90
19781;DHT22;10050;55.492;13.506;2023-04-27T10:52:03;12.10;99.90
19781;DHT22;10050;55.492;13.506;2023-04-27T10:54:30;12.00;99.90
19781;DHT22;10050;55.492;13.506;2023-04-27T10:57:03;12.40;99.90
19781;DHT22;10050;55.492;13.506;2023-04-27T10:59:29;12.60;99.90
19781;DHT22;10050;55.492;13.506;2023-04-27T11:01:54;13.10;99.90
19781;DHT22;10050;55.492;13.506;2023-04-27T11:04:20;12.50;99.90
19781;DHT22;10050;55.492;13.506;2023-04-27T11:06:46;12.30;99.90
19781;DHT22;10050;55.492;13.506;2023-04-27T11:09:12;12.60;99.90
19781;DHT22;10050;55.492;13.506;2023-04-27T11:11:43;12.60;99.90
19781;DHT22;10050;55.492;13.506;2023-04-27T11:14:09;12.70;99.90
19781;DHT22;10050;55.492;13.506;2023-04-27T11:16:35;12.50;99.90
19781;DHT22;10050;55.492;13.506;2023-04-27T11:19:04;12.50;99.90
19781;DHT22;10050;55.492;13.506;2023-04-27T11:21:31;12.80;99.90
19781;DHT22;10050;55.492;13.506;2023-04-27T11:24:03;13.20;99.90
19781;DHT22;10050;55.492;13.506;2023-04-27T11:26:29;13.00;99.90
19781;DHT22;10050;55.492;13.506;2023-04-27T11:29:04;12.70;99.90
19781;DHT22;10050;55.492;13.506;2023-04-27T11:31:39;12.20;99.90
19781;DHT22;10050;55.492;13.506;2023-04-27T11:34:06;11.90;99.90
19781;DHT22;10050;55.492;13.506;2023-04-27T11:36:32;11.80;99.90
19781;DHT22;10050;55.492;13.506;2023-04-27T11:38:58;11.60;99.90
19781;DHT22;10050;55.492;13.506;2023-04-27T11:41:34;11.50;99.90
19781;DHT22;10050;55.492;13.506;2023-04-27T11:44:06;11.90;99.90
19781;DHT22;10050;55.492;13.506;2023-04-27T11:46:36;12.30;99.90
19781;DHT22;10050;55.492;13.506;2023-04-27T11:49:03;12.30;99.90
19781;DHT22;10050;55.492;13.506;2023-04-27T11:51:30;11.90;99.90
19781;DHT22;10050;55.492;13.506;2023-04-27T11:54:03;11.70;99.90
19781;DHT22;10050;55.492;13.506;2023-04-27T11:56:40;11.70;99.90
19781;DHT22;10050;55.492;13.506;2023-04-27T11:59:20;11.50;99.90
19781;DHT22;10050;55.492;13.506;2023-04-27T12:01:46;11.40;99.90
19781;DHT22;10050;55.492;13.506;2023-04-27T12:04:11;11.30;99.90
19781;DHT22;10050;55.492;13.506;2023-04-27T12:06:37;11.20;99.90
19781;DHT22;10050;55.492;13.506;2023-04-27T12:09:03;11.20;99.90
19781;DHT22;10050;55.492;13.506;2023-04-27T12:11:29;11.20;99.90
19781;DHT22;10050;55.492;13.506;2023-04-27T12:13:55;10.90;99.90
19781;DHT22;10050;55.492;13.506;2023-04-27T12:16:21;10.60;99.90
19781;DHT22;10050;55.492;13.506;2023-04-27T12:18:50;10.50;99.90
19781;DHT22;10050;55.492;13.506;2023-04-27T12:21:18;10.70;99.90
19781;DHT22;10050;55.492;13.506;2023-04-27T12:23:44;11.10;99.90
19781;DHT22;10050;55.492;13.506;2023-04-27T12:26:12;11.30;99.90
19781;DHT22;10050;55.492;13.506;2023-04-27T12:28:38;11.30;99.90
19781;DHT22;10050;55.492;13.506;2023-04-27T12:31:04;11.40;99.90
19781;DHT22;10050;55.492;13.506;2023-04-27T12:33:30;11.30;99.90
19781;DHT22;10050;55.492;13.506;2023-04-27T12:35:56;11.40;99.90
19781;DHT22;10050;55.492;13.506;2023-04-27T12:38:22;11.40;99.90
19781;DHT22;10050;55.492;13.506;2023-04-27T12:40:48;11.60;99.90
19781;DHT22;10050;55.492;13.506;2023-04-27T12:43:14;11.60;99.90
19781;DHT22;10050;55.492;13.506;2023-04-27T12:45:40;11.60;99.90
19781;DHT22;10050;55.492;13.506;2023-04-27T12:48:06;11.50;99.90
19781;DHT22;10050;55.492;13.506;2023-04-27T12:50:32;11.20;99.90
19781;DHT22;10050;55.492;13.506;2023-04-27T12:52:57;11.10;99.90
19781;DHT22;10050;55.492;13.506;2023-04-27T12:55:23;11.00;99.90
19781;DHT22;10050;55.492;13.506;2023-04-27T12:57:49;10.90;99.90
19781;DHT22;10050;55.492;13.506;2023-04-27T13:00:15;10.80;99.90
19781;DHT22;10050;55.492;13.506;2023-04-27T13:02:41;10.80;99.90
19781;DHT22;10050;55.492;13.506;2023-04-27T13:05:07;10.90;99.90
19781;DHT22;10050;55.492;13.506;2023-04-27T13:07:33;11.00;99.90
19781;DHT22;10050;55.492;13.506;2023-04-27T13:10:00;11.20;99.90
19781;DHT22;10050;55.492;13.506;2023-04-27T13:12:26;11.10;99.90
19781;DHT22;10050;55.492;13.506;2023-04-27T13:14:52;11.00;99.90
19781;DHT22;10050;55.492;13.506;2023-04-27T13:17:18;11.10;99.90
19781;DHT22;10050;55.492;13.506;2023-04-27T13:19:43;11.20;99.90
19781;DHT22;10050;55.492;13.506;2023-04-27T13:22:09;11.10;99.90
19781;DHT22;10050;55.492;13.506;2023-04-27T13:24:35;10.90;99.90
19781;DHT22;10050;55.492;13.506;2023-04-27T13:27:01;10.60;99.90
19781;DHT22;10050;55.492;13.506;2023-04-27T13:29:27;10.50;99.90
19781;DHT22;10050;55.492;13.506;2023-04-27T13:31:56;10.50;99.90
19781;DHT22;10050;55.492;13.506;2023-04-27T13:34:22;10.40;99.90
19781;DHT22;10050;55.492;13.506;2023-04-27T13:36:47;10.30;99.90
19781;DHT22;10050;55.492;13.506;2023-04-27T13:39:13;10.20;99.90
19781;DHT22;10050;55.492;13.506;2023-04-27T13:41:41;10.20;99.90
19781;DHT22;10050;55.492;13.506;2023-04-27T13:44:06;10.20;99.90
19781;DHT22;10050;55.492;13.506;2023-04-27T13:46:32;10.30;99.90
19781;DHT22;10050;55.492;13.506;2023-04-27T13:48:58;10.80;99.90
19781;DHT22;10050;55.492;13.506;2023-04-27T13:51:23;11.20;99.90
19781;DHT22;10050;55.492;13.506;2023-04-27T13:53:49;11.10;99.90
19781;DHT22;10050;55.492;13.506;2023-04-27T13:56:17;10.90;99.90
19781;DHT22;10050;55.492;13.506;2023-04-27T13:58:43;10.70;99.90
19781;DHT22;10050;55.492;13.506;2023-04-27T14:01:09;10.60;99.90
19781;DHT22;10050;55.492;13.506;2023-04-27T14:03:35;10.50;99.90
19781;DHT22;10050;55.492;13.506;2023-04-27T14:06:01;10.50;99.90
19781;DHT22;10050;55.492;13.506;2023-04-27T14:08:26;10.90;99.90
19781;DHT22;10050;55.492;13.506;2023-04-27T14:10:53;11.20;99.90
19781;DHT22;10050;55.492;13.506;2023-04-27T14:13:19;11.10;99.90
19781;DHT22;10050;55.492;13.506;2023-04-27T14:15:45;10.90;99.90
19781;DHT22;10050;55.492;13.506;2023-04-27T14:18:11;10.80;99.90
19781;DHT22;10050;55.492;13.506;2023-04-27T14:20:37;10.60;99.90
19781;DHT22;10050;55.492;13.506;2023-04-27T14:23:10;10.40;99.90
19781;DHT22;10050;55.492;13.506;2023-04-27T14:25:38;10.40;99.90
19781;DHT22;10050;55.492;13.506;2023-04-27T14:28:05;10.30;99.90
19781;DHT22;10050;55.492;13.506;2023-04-27T14:30:34;10.30;99.90
19781;DHT22;10050;55.492;13.506;2023-04-27T14:33:05;10.20;99.90
19781;DHT22;10050;55.492;13.506;2023-04-27T14:35:34;10.20;99.90
19781;DHT22;10050;55.492;13.506;2023-04-27T14:38:03;10.20;99.90
19781;DHT22;10050;55.492;13.506;2023-04-27T14:40:38;10.10;99.90
19781;DHT22;10050;55.492;13.506;2023-04-27T14:43:19;10.10;99.90
19781;DHT22;10050;55.492;13.506;2023-04-27T14:45:48;10.10;99.90
19781;DHT22;10050;55.492;13.506;2023-04-27T14:48:13;10.10;99.90
19781;DHT22;10050;55.492;13.506;2023-04-27T14:50:39;10.10;99.90
19781;DHT22;10050;55.492;13.506;2023-04-27T14:53:08;10.00;99.90
19781;DHT22;10050;55.492;13.506;2023-04-27T14:55:33;10.00;99.90
19781;DHT22;10050;55.492;13.506;2023-04-27T14:58:02;10.00;99.90
19781;DHT22;10050;55.492;13.506;2023-04-27T15:00:28;10.10;99.90
19781;DHT22;10050;55.492;13.506;2023-04-27T15:02:53;10.10;99.90
19781;DHT22;10050;55.492;13.506;2023-04-27T15:05:19;10.20;99.90
19781;DHT22;10050;55.492;13.506;2023-04-27T15:07:45;10.40;99.90
19781;DHT22;10050;55.492;13.506;2023-04-27T15:10:10;10.60;99.90
19781;DHT22;10050;55.492;13.506;2023-04-27T15:12:36;10.80;99.90
19781;DHT22;10050;55.492;13.506;2023-04-27T15:15:02;10.90;99.90
19781;DHT22;10050;55.492;13.506;2023-04-27T15:17:40;10.90;99.90
19781;DHT22;10050;55.492;13.506;2023-04-27T15:20:06;10.90;99.90
19781;DHT22;10050;55.492;13.506;2023-04-27T15:22:32;10.70;99.90
19781;DHT22;10050;55.492;13.506;2023-04-27T15:24:58;10.70;99.90